createdAt,value
2019-02-19T00:00:12.299Z,1.90
2019-02-19T00:02:38.455Z,1.90
2019-02-19T00:05:04.775Z,2.10
2019-02-19T00:07:31.001Z,2.10
2019-02-19T00:09:57.413Z,2.20
2019-02-19T00:12:23.564Z,2.30
2019-02-19T00:14:49.745Z,2.10
2019-02-19T00:17:15.826Z,2.10
2019-02-19T00:19:42.040Z,2.00
2019-02-19T00:22:08.171Z,2.20
2019-02-19T00:24:34.339Z,2.30
2019-02-19T00:27:00.419Z,2.20
2019-02-19T00:29:26.544Z,2.20
2019-02-19T00:31:52.631Z,1.90
2019-02-19T00:34:18.783Z,1.90
2019-02-19T00:36:44.923Z,1.80
2019-02-19T00:39:11.210Z,1.90
2019-02-19T00:41:37.366Z,1.90
2019-02-19T00:44:03.523Z,1.90
2019-02-19T00:46:29.675Z,1.80
2019-02-19T00:48:55.895Z,1.60
2019-02-19T00:51:22.024Z,1.70
2019-02-19T00:53:48.138Z,1.50
2019-02-19T00:56:14.214Z,1.60
2019-02-19T00:58:42.214Z,1.40
2019-02-19T01:01:08.307Z,1.50
2019-02-19T01:03:34.452Z,1.40
2019-02-19T01:06:00.822Z,1.40
2019-02-19T01:08:26.920Z,1.50
2019-02-19T01:10:53.062Z,1.30
2019-02-19T01:13:19.253Z,1.30
2019-02-19T01:15:45.370Z,1.30
2019-02-19T01:18:11.498Z,1.40
2019-02-19T01:20:37.702Z,1.50
2019-02-19T01:23:03.840Z,1.40
2019-02-19T01:25:29.996Z,1.30
2019-02-19T01:27:56.098Z,1.30
2019-02-19T01:30:22.265Z,1.40
2019-02-19T01:32:48.355Z,1.30
2019-02-19T01:35:14.499Z,1.20
2019-02-19T01:37:40.728Z,1.10
2019-02-19T01:40:07.698Z,1.10
2019-02-19T01:42:33.938Z,1.10
2019-02-19T01:45:00.056Z,1.20
2019-02-19T01:47:26.378Z,1.20
2019-02-19T01:49:52.455Z,1.10
2019-02-19T01:52:18.616Z,1.10
2019-02-19T01:54:44.800Z,1.00
2019-02-19T01:57:10.924Z,1.10
2019-02-19T01:59:37.116Z,1.10
2019-02-19T02:02:03.297Z,1.00
2019-02-19T02:04:29.382Z,1.10
2019-02-19T02:06:55.469Z,0.90
2019-02-19T02:09:21.570Z,0.90
2019-02-19T02:11:47.688Z,0.90
2019-02-19T02:14:13.879Z,0.90
2019-02-19T02:16:40.010Z,1.00
2019-02-19T02:19:06.120Z,0.90
2019-02-19T02:21:32.348Z,0.90
2019-02-19T02:23:58.423Z,0.90
2019-02-19T02:26:24.504Z,0.90
2019-02-19T02:28:50.627Z,0.90
2019-02-19T02:31:16.797Z,1.00
2019-02-19T02:33:42.926Z,1.00
2019-02-19T02:36:09.145Z,1.00
2019-02-19T02:38:35.257Z,1.10
2019-02-19T02:41:01.531Z,1.20
2019-02-19T02:43:27.702Z,1.10
2019-02-19T02:45:54.012Z,1.10
2019-02-19T02:48:20.331Z,1.10
2019-02-19T02:50:46.620Z,1.10
2019-02-19T02:53:12.748Z,0.90
2019-02-19T02:55:38.909Z,0.80
2019-02-19T02:58:05.014Z,0.70
2019-02-19T03:00:31.095Z,0.70
2019-02-19T03:02:57.245Z,0.70
2019-02-19T03:05:25.301Z,0.70
2019-02-19T03:07:53.285Z,0.70
2019-02-19T03:10:19.349Z,0.70
2019-02-19T03:12:45.451Z,0.70
2019-02-19T03:15:11.971Z,0.70
2019-02-19T03:17:38.061Z,0.70
2019-02-19T03:20:05.701Z,0.60
2019-02-19T03:22:31.933Z,0.60
2019-02-19T03:24:58.170Z,0.70
2019-02-19T03:27:24.290Z,0.70
2019-02-19T03:29:50.430Z,0.80
2019-02-19T03:32:16.647Z,0.70
2019-02-19T03:34:42.839Z,0.80
2019-02-19T03:37:08.913Z,1.00
2019-02-19T03:39:35.113Z,0.90
2019-02-19T03:42:01.252Z,0.90
2019-02-19T03:44:27.469Z,0.70
2019-02-19T03:46:53.567Z,0.60
2019-02-19T03:49:19.808Z,0.60
2019-02-19T03:51:45.993Z,0.60
2019-02-19T03:54:12.069Z,0.60
2019-02-19T03:56:38.285Z,0.70
2019-02-19T03:59:04.672Z,0.70
2019-02-19T04:01:30.903Z,0.80
2019-02-19T04:03:57.147Z,0.60
2019-02-19T04:06:23.318Z,0.40
2019-02-19T04:08:49.462Z,0.50
2019-02-19T04:11:15.653Z,0.50
2019-02-19T04:13:41.927Z,0.50
2019-02-19T04:16:08.194Z,0.60
2019-02-19T04:18:34.357Z,0.60
2019-02-19T04:21:00.482Z,0.60
2019-02-19T04:23:26.601Z,0.70
2019-02-19T04:25:52.793Z,0.80
2019-02-19T04:28:18.915Z,0.70
2019-02-19T04:30:45.101Z,0.70
2019-02-19T04:33:11.195Z,0.90
2019-02-19T04:35:37.338Z,0.90
2019-02-19T04:38:03.625Z,0.90
2019-02-19T04:40:29.850Z,0.90
2019-02-19T04:42:55.974Z,0.80
2019-02-19T04:45:22.074Z,0.80
2019-02-19T04:47:48.218Z,0.70
2019-02-19T04:50:14.400Z,0.60
2019-02-19T04:52:40.494Z,0.50
2019-02-19T04:55:06.834Z,0.40
2019-02-19T04:57:32.907Z,0.50
2019-02-19T04:59:59.007Z,0.50
2019-02-19T05:02:25.136Z,0.50
2019-02-19T05:04:51.317Z,0.50
2019-02-19T05:07:17.430Z,0.30
2019-02-19T05:09:43.690Z,0.30
2019-02-19T05:12:09.898Z,0.30
2019-02-19T05:14:36.084Z,0.30
2019-02-19T05:17:02.305Z,0.30
2019-02-19T05:19:28.448Z,0.40
2019-02-19T05:21:54.554Z,0.40
2019-02-19T05:24:20.684Z,0.40
2019-02-19T05:26:47.043Z,0.50
2019-02-19T05:29:13.486Z,0.50
2019-02-19T05:31:39.619Z,0.60
2019-02-19T05:34:05.832Z,0.50
2019-02-19T05:36:32.038Z,0.50
2019-02-19T05:38:58.175Z,0.50
2019-02-19T05:41:24.445Z,0.40
2019-02-19T05:43:50.539Z,0.40
2019-02-19T05:46:16.654Z,0.40
2019-02-19T05:48:42.804Z,0.50
2019-02-19T05:51:08.964Z,0.60
2019-02-19T05:53:35.146Z,0.60
2019-02-19T05:56:01.279Z,0.60
2019-02-19T05:58:27.366Z,0.60
2019-02-19T06:00:53.458Z,0.70
2019-02-19T06:03:19.546Z,0.60
2019-02-19T06:05:45.635Z,0.50
2019-02-19T06:08:11.778Z,0.60
2019-02-19T06:10:37.911Z,0.60
2019-02-19T06:13:06.212Z,0.50
2019-02-19T06:15:33.082Z,0.40
2019-02-19T06:17:59.325Z,0.40
2019-02-19T06:20:26.266Z,0.40
2019-02-19T06:22:52.498Z,0.50
2019-02-19T06:25:18.588Z,0.20
2019-02-19T06:27:44.694Z,0.40
2019-02-19T06:30:11.667Z,0.40
2019-02-19T06:32:37.856Z,0.40
2019-02-19T06:35:05.188Z,0.40
2019-02-19T06:37:31.284Z,0.50
2019-02-19T06:39:57.419Z,0.40
2019-02-19T06:42:23.669Z,0.50
2019-02-19T06:44:49.866Z,0.50
2019-02-19T06:47:15.996Z,0.60
2019-02-19T06:49:42.081Z,0.80
2019-02-19T06:52:08.242Z,0.90
2019-02-19T06:54:34.457Z,1.10
2019-02-19T06:57:00.589Z,1.10
2019-02-19T06:59:26.747Z,1.10
2019-02-19T07:02:00.603Z,1.10
2019-02-19T07:04:31.492Z,1.20
2019-02-19T07:06:57.626Z,1.20
2019-02-19T07:09:23.979Z,1.30
2019-02-19T07:11:50.088Z,1.40
2019-02-19T07:14:16.215Z,1.50
2019-02-19T07:16:42.298Z,1.80
2019-02-19T07:19:08.427Z,2.00
2019-02-19T07:21:34.548Z,2.20
2019-02-19T07:24:04.519Z,2.30
2019-02-19T07:26:28.803Z,2.40
2019-02-19T07:28:55.043Z,2.80
2019-02-19T07:31:21.111Z,3.40
2019-02-19T07:33:47.284Z,3.80
2019-02-19T07:36:13.505Z,4.10
2019-02-19T07:38:39.617Z,4.20
2019-02-19T07:41:05.821Z,3.90
2019-02-19T07:43:31.981Z,3.80
2019-02-19T07:45:58.142Z,3.70
2019-02-19T07:48:24.389Z,3.80
2019-02-19T07:50:50.479Z,3.70
2019-02-19T07:53:16.609Z,3.80
2019-02-19T07:55:42.975Z,3.90
2019-02-19T07:58:09.228Z,4.00
2019-02-19T08:00:35.442Z,4.10
2019-02-19T08:03:01.786Z,4.20
2019-02-19T08:05:27.873Z,4.20
2019-02-19T08:07:54.027Z,4.30
2019-02-19T08:10:20.249Z,4.60
2019-02-19T08:12:46.357Z,4.70
2019-02-19T08:15:12.471Z,4.90
2019-02-19T08:17:38.617Z,5.20
2019-02-19T08:20:13.445Z,5.50
2019-02-19T08:22:34.840Z,5.50
2019-02-19T08:25:01.200Z,5.70
2019-02-19T08:27:27.361Z,5.70
2019-02-19T08:29:53.518Z,5.60
2019-02-19T08:32:19.645Z,5.60
2019-02-19T08:34:45.805Z,5.60
2019-02-19T08:37:12.329Z,5.70
2019-02-19T08:39:38.465Z,5.70
2019-02-19T08:42:04.685Z,5.80
2019-02-19T08:44:30.773Z,5.90
2019-02-19T08:46:56.907Z,6.10
2019-02-19T08:49:23.025Z,6.00
2019-02-19T08:51:55.864Z,6.00
2019-02-19T08:54:17.155Z,6.10
2019-02-19T08:56:43.234Z,6.10
2019-02-19T08:59:09.339Z,6.10
2019-02-19T09:01:35.432Z,6.40
2019-02-19T09:04:01.985Z,6.60
2019-02-19T09:06:28.221Z,6.80
2019-02-19T09:08:54.445Z,7.00
2019-02-19T09:11:20.535Z,7.10
2019-02-19T09:13:46.759Z,7.10
2019-02-19T09:16:12.855Z,7.10
2019-02-19T09:18:38.994Z,7.20
2019-02-19T09:21:05.172Z,7.20
2019-02-19T09:23:31.285Z,7.20
2019-02-19T09:25:57.406Z,7.20
2019-02-19T09:28:23.649Z,7.30
2019-02-19T09:30:49.741Z,7.30
2019-02-19T09:33:15.888Z,7.40
2019-02-19T09:35:42.111Z,7.40
2019-02-19T09:38:08.331Z,7.40
2019-02-19T09:40:34.478Z,7.40
2019-02-19T09:43:00.602Z,7.40
2019-02-19T09:45:26.671Z,7.50
2019-02-19T09:48:01.026Z,7.60
2019-02-19T09:50:20.796Z,7.70
2019-02-19T09:52:46.922Z,7.70
2019-02-19T09:55:13.075Z,7.70
2019-02-19T09:57:39.167Z,7.70
2019-02-19T10:00:09.121Z,7.80
2019-02-19T10:02:35.185Z,7.80
2019-02-19T10:05:01.295Z,7.60
2019-02-19T10:07:27.531Z,7.60
2019-02-19T10:09:53.749Z,7.50
2019-02-19T10:12:19.962Z,7.50
2019-02-19T10:14:46.094Z,7.50
2019-02-19T10:17:12.334Z,7.50
2019-02-19T10:19:38.526Z,7.60
2019-02-19T10:22:04.607Z,7.60
2019-02-19T10:24:30.804Z,7.60
2019-02-19T10:26:56.981Z,7.60
2019-02-19T10:29:23.056Z,7.60
2019-02-19T10:31:49.208Z,7.70
2019-02-19T10:34:15.378Z,7.70
2019-02-19T10:36:41.520Z,7.80
2019-02-19T10:39:10.261Z,7.80
2019-02-19T10:41:36.434Z,7.90
2019-02-19T10:44:02.538Z,7.80
2019-02-19T10:46:28.632Z,7.80
2019-02-19T10:48:54.718Z,7.80
2019-02-19T10:51:20.813Z,7.90
2019-02-19T10:53:47.028Z,7.90
2019-02-19T10:56:13.140Z,8.10
2019-02-19T10:58:39.270Z,8.20
2019-02-19T11:01:05.399Z,8.40
2019-02-19T11:03:32.123Z,8.50
2019-02-19T11:05:58.284Z,8.60
2019-02-19T11:08:24.388Z,8.60
2019-02-19T11:10:50.945Z,8.40
2019-02-19T11:13:17.302Z,8.50
2019-02-19T11:15:43.388Z,8.50
2019-02-19T11:18:09.490Z,8.50
2019-02-19T11:20:35.615Z,8.50
2019-02-19T11:23:01.794Z,8.40
2019-02-19T11:25:27.910Z,8.50
2019-02-19T11:27:54.035Z,8.60
2019-02-19T11:30:20.738Z,8.60
2019-02-19T11:32:47.001Z,8.50
2019-02-19T11:35:13.352Z,8.50
2019-02-19T11:37:39.526Z,8.50
2019-02-19T11:40:13.083Z,8.50
2019-02-19T11:42:39.386Z,8.50
2019-02-19T11:45:11.696Z,8.50
2019-02-19T11:47:37.800Z,8.60
2019-02-19T11:50:04.845Z,8.60
2019-02-19T11:52:30.929Z,8.70
2019-02-19T11:54:57.107Z,8.80
2019-02-19T11:57:23.185Z,8.80
2019-02-19T11:59:49.333Z,8.90
2019-02-19T12:02:16.322Z,8.90
2019-02-19T12:04:42.418Z,8.80
2019-02-19T12:07:08.572Z,8.80
2019-02-19T12:09:34.906Z,8.80
2019-02-19T12:12:01.003Z,8.80
2019-02-19T12:14:27.141Z,8.80
2019-02-19T12:16:53.259Z,8.90
2019-02-19T12:19:19.387Z,8.90
2019-02-19T12:21:45.617Z,8.90
2019-02-19T12:24:11.795Z,8.90
2019-02-19T12:26:38.253Z,9.00
2019-02-19T12:29:04.439Z,9.00
2019-02-19T12:31:30.545Z,9.00
2019-02-19T12:33:57.061Z,8.90
2019-02-19T12:36:23.177Z,8.90
2019-02-19T12:38:49.411Z,8.90
2019-02-19T12:41:15.657Z,9.00
2019-02-19T12:43:41.745Z,9.10
2019-02-19T12:46:07.955Z,9.20
2019-02-19T12:48:34.125Z,9.20
2019-02-19T12:51:00.359Z,9.20
2019-02-19T12:53:26.643Z,9.20
2019-02-19T12:55:52.727Z,9.20
2019-02-19T12:58:18.868Z,9.10
2019-02-19T13:00:45.036Z,9.00
2019-02-19T13:03:11.291Z,9.00
2019-02-19T13:05:37.407Z,9.00
2019-02-19T13:08:03.602Z,9.00
2019-02-19T13:10:29.741Z,9.00
2019-02-19T13:12:55.875Z,9.00
2019-02-19T13:15:22.055Z,9.10
2019-02-19T13:17:48.231Z,9.00
2019-02-19T13:20:14.453Z,9.00
2019-02-19T13:22:40.762Z,8.90
2019-02-19T13:25:10.913Z,8.80
2019-02-19T13:27:37.009Z,8.90
2019-02-19T13:30:14.861Z,8.90
2019-02-19T13:32:40.985Z,8.90
2019-02-19T13:35:09.496Z,8.80
2019-02-19T13:37:35.741Z,8.80
2019-02-19T13:40:03.069Z,8.70
2019-02-19T13:42:29.177Z,8.70
2019-02-19T13:44:55.265Z,8.70
2019-02-19T13:47:21.389Z,8.60
2019-02-19T13:49:47.583Z,8.70
2019-02-19T13:52:22.387Z,8.60
2019-02-19T13:54:44.594Z,8.60
2019-02-19T13:57:10.699Z,8.60
2019-02-19T13:59:36.937Z,8.70
2019-02-19T14:02:03.117Z,8.60
2019-02-19T14:04:29.243Z,8.60
2019-02-19T14:06:55.362Z,8.60
2019-02-19T14:09:21.518Z,8.60
2019-02-19T14:11:47.641Z,8.40
2019-02-19T14:14:15.679Z,8.30
2019-02-19T14:16:46.844Z,8.30
2019-02-19T14:19:21.263Z,8.30
2019-02-19T14:21:46.515Z,8.20
2019-02-19T14:24:26.576Z,8.10
2019-02-19T14:26:54.743Z,8.10
2019-02-19T14:29:31.863Z,8.10
2019-02-19T14:32:10.661Z,8.10
2019-02-19T14:34:47.821Z,8.20
2019-02-19T14:37:32.916Z,8.10
2019-02-19T14:40:10.497Z,8.10
2019-02-19T14:42:48.039Z,8.10
2019-02-19T14:45:18.813Z,8.00
2019-02-19T14:47:49.682Z,8.00
2019-02-19T14:50:26.792Z,7.90
2019-02-19T14:53:03.951Z,8.00
2019-02-19T14:55:38.040Z,8.10
2019-02-19T14:58:23.138Z,8.20
2019-02-19T15:00:59.953Z,8.20
2019-02-19T15:03:44.372Z,8.20
2019-02-19T15:06:15.456Z,8.20
2019-02-19T15:08:46.587Z,8.20
2019-02-19T15:11:31.470Z,8.20
2019-02-19T15:14:16.207Z,8.20
2019-02-19T15:16:50.062Z,8.10
2019-02-19T15:19:23.958Z,8.20
2019-02-19T15:21:54.746Z,8.20
2019-02-19T15:24:28.679Z,8.30
2019-02-19T15:27:05.697Z,8.60
2019-02-19T15:29:36.488Z,9.00
2019-02-19T15:32:06.452Z,9.10
2019-02-19T15:34:53.263Z,9.10
2019-02-19T15:37:24.316Z,8.90
2019-02-19T15:40:08.806Z,8.60
2019-02-19T15:42:36.813Z,8.40
2019-02-19T15:45:19.610Z,8.20
2019-02-19T15:47:53.851Z,8.20
2019-02-19T15:50:38.570Z,8.20
2019-02-19T15:53:06.732Z,8.10
2019-02-19T15:55:46.988Z,8.10
2019-02-19T15:58:15.041Z,8.10
2019-02-19T16:00:46.092Z,8.10
2019-02-19T16:03:29.342Z,8.30
2019-02-19T16:06:03.419Z,8.20
2019-02-19T16:08:34.683Z,8.20
2019-02-19T16:11:02.951Z,8.10
2019-02-19T16:13:36.998Z,8.10
2019-02-19T16:16:20.064Z,8.00
2019-02-19T16:18:48.502Z,8.00
2019-02-19T16:21:17.126Z,8.00
2019-02-19T16:23:48.264Z,7.90
2019-02-19T16:26:22.808Z,7.90
2019-02-19T16:28:57.436Z,7.90
2019-02-19T16:31:35.070Z,7.80
2019-02-19T16:34:15.479Z,7.80
2019-02-19T16:36:43.630Z,7.80
2019-02-19T16:39:27.094Z,7.70
2019-02-19T16:42:11.925Z,7.50
2019-02-19T16:44:39.934Z,7.40
2019-02-19T16:47:19.977Z,7.40
2019-02-19T16:49:48.060Z,7.20
2019-02-19T16:52:31.268Z,7.20
2019-02-19T16:54:59.314Z,7.00
2019-02-19T16:57:42.643Z,7.00
2019-02-19T17:00:15.201Z,6.90
2019-02-19T17:02:46.300Z,6.70
2019-02-19T17:05:23.262Z,6.50
2019-02-19T17:07:51.303Z,6.50
2019-02-19T17:10:28.683Z,6.30
2019-02-19T17:12:56.727Z,6.30
2019-02-19T17:15:41.618Z,6.10
2019-02-19T17:18:26.300Z,6.10
2019-02-19T17:20:54.460Z,6.00
2019-02-19T17:23:39.391Z,5.90
2019-02-19T17:26:07.516Z,5.80
2019-02-19T17:28:35.667Z,5.70
2019-02-19T17:31:03.826Z,5.60
2019-02-19T17:33:34.666Z,5.60
2019-02-19T17:36:02.693Z,5.50
2019-02-19T17:38:30.695Z,5.30
2019-02-19T17:41:01.727Z,5.30
2019-02-19T17:43:29.731Z,5.20
2019-02-19T17:45:57.726Z,5.20
2019-02-19T17:48:38.064Z,5.10
2019-02-19T17:51:06.393Z,5.10
2019-02-19T17:53:34.485Z,5.10
2019-02-19T17:56:20.850Z,4.90
2019-02-19T17:59:04.066Z,4.90
2019-02-19T18:01:41.109Z,5.00
2019-02-19T18:04:10.989Z,4.80
2019-02-19T18:06:54.177Z,4.90
2019-02-19T18:09:22.243Z,4.80
2019-02-19T18:11:50.342Z,4.80
2019-02-19T18:14:24.537Z,4.90
2019-02-19T18:16:52.666Z,4.80
2019-02-19T18:19:18.877Z,4.80
2019-02-19T18:21:45.033Z,4.80
2019-02-19T18:24:11.151Z,4.80
2019-02-19T18:26:37.937Z,4.90
2019-02-19T18:29:04.310Z,4.80
2019-02-19T18:31:30.454Z,4.80
2019-02-19T18:33:57.017Z,4.80
2019-02-19T18:36:23.258Z,4.80
2019-02-19T18:38:49.373Z,4.80
2019-02-19T18:41:15.923Z,4.80
2019-02-19T18:43:42.034Z,4.80
2019-02-19T18:46:08.477Z,4.80
2019-02-19T18:48:34.600Z,4.90
2019-02-19T18:51:01.579Z,4.80
2019-02-19T18:53:28.946Z,4.90
2019-02-19T18:55:55.021Z,4.80
2019-02-19T18:58:21.121Z,4.80
2019-02-19T19:00:47.220Z,4.60
2019-02-19T19:03:13.438Z,4.60
2019-02-19T19:05:39.675Z,4.50
2019-02-19T19:08:05.867Z,4.50
2019-02-19T19:10:32.000Z,4.40
2019-02-19T19:12:58.111Z,4.40
2019-02-19T19:15:24.197Z,4.40
2019-02-19T19:17:50.321Z,4.30
2019-02-19T19:20:16.595Z,4.20
2019-02-19T19:22:42.826Z,4.00
2019-02-19T19:25:09.316Z,3.80
2019-02-19T19:27:35.445Z,3.70
2019-02-19T19:30:03.188Z,3.80
2019-02-19T19:32:29.372Z,3.80
2019-02-19T19:34:55.497Z,3.80
2019-02-19T19:37:21.614Z,3.70
2019-02-19T19:39:47.918Z,3.70
2019-02-19T19:42:14.143Z,3.60
2019-02-19T19:44:40.330Z,3.60
2019-02-19T19:47:06.452Z,3.60
2019-02-19T19:49:32.696Z,3.60
2019-02-19T19:51:58.836Z,3.70
2019-02-19T19:54:25.309Z,3.60
2019-02-19T19:56:51.541Z,3.70
2019-02-19T19:59:17.706Z,3.60
2019-02-19T20:01:43.994Z,3.40
2019-02-19T20:04:10.743Z,3.30
2019-02-19T20:06:37.464Z,3.30
2019-02-19T20:09:04.877Z,3.30
2019-02-19T20:11:31.793Z,3.20
2019-02-19T20:13:58.222Z,3.10
2019-02-19T20:16:24.730Z,3.10
2019-02-19T20:18:51.087Z,3.20
2019-02-19T20:21:26.268Z,3.10
2019-02-19T20:23:45.882Z,3.20
2019-02-19T20:26:12.340Z,3.00
2019-02-19T20:28:38.671Z,3.00
2019-02-19T20:31:05.138Z,3.00
2019-02-19T20:33:31.494Z,3.00
2019-02-19T20:35:58.274Z,2.80
2019-02-19T20:38:24.612Z,2.80
2019-02-19T20:40:50.931Z,2.80
2019-02-19T20:43:17.280Z,2.70
2019-02-19T20:45:43.797Z,2.70
2019-02-19T20:48:10.146Z,2.70
2019-02-19T20:50:36.521Z,2.70
2019-02-19T20:53:02.773Z,2.70
2019-02-19T20:55:36.771Z,2.60
2019-02-19T20:57:57.278Z,2.50
2019-02-19T21:00:23.697Z,2.60
2019-02-19T21:02:50.093Z,2.70
2019-02-19T21:05:16.885Z,2.70
2019-02-19T21:07:45.701Z,2.70
2019-02-19T21:10:17.296Z,2.60
2019-02-19T21:12:43.383Z,2.60
2019-02-19T21:15:10.293Z,2.50
2019-02-19T21:17:42.823Z,2.50
2019-02-19T21:20:22.104Z,2.40
2019-02-19T21:22:48.659Z,2.50
2019-02-19T21:25:18.644Z,2.50
2019-02-19T21:27:45.193Z,2.40
2019-02-19T21:30:13.044Z,2.50
2019-02-19T21:32:44.385Z,2.50
2019-02-19T21:35:13.526Z,2.40
2019-02-19T21:37:44.031Z,2.40
2019-02-19T21:40:16.397Z,2.30
2019-02-19T21:42:42.639Z,2.20
2019-02-19T21:45:10.211Z,2.10
2019-02-19T21:47:36.415Z,2.10
2019-02-19T21:50:05.152Z,2.00
2019-02-19T21:52:31.434Z,2.00
2019-02-19T21:54:57.628Z,2.10
2019-02-19T21:57:23.786Z,2.00
2019-02-19T21:59:49.969Z,1.90
2019-02-19T22:02:16.661Z,1.80
2019-02-19T22:04:42.995Z,1.80
2019-02-19T22:07:09.149Z,1.80
2019-02-19T22:09:35.338Z,1.70
2019-02-19T22:12:01.535Z,1.80
2019-02-19T22:14:27.767Z,1.70
2019-02-19T22:16:53.839Z,1.70
2019-02-19T22:19:19.952Z,1.70
2019-02-19T22:21:47.988Z,1.70
2019-02-19T22:24:16.091Z,1.60
2019-02-19T22:26:42.179Z,1.60
2019-02-19T22:29:08.287Z,1.50
2019-02-19T22:31:34.375Z,1.50
2019-02-19T22:34:00.553Z,1.50
2019-02-19T22:36:26.848Z,1.50
2019-02-19T22:38:52.966Z,1.50
2019-02-19T22:41:19.055Z,1.40
2019-02-19T22:43:45.271Z,1.30
2019-02-19T22:46:11.435Z,1.30
2019-02-19T22:48:37.574Z,1.30
2019-02-19T22:51:03.942Z,1.40
2019-02-19T22:53:44.282Z,1.50
2019-02-19T22:56:21.624Z,1.70
2019-02-19T22:58:47.787Z,1.60
2019-02-19T23:01:25.066Z,1.40
2019-02-19T23:03:51.391Z,1.30
2019-02-19T23:06:17.491Z,1.10
2019-02-19T23:08:43.632Z,1.00
2019-02-19T23:11:09.870Z,1.10
2019-02-19T23:13:35.940Z,1.10
2019-02-19T23:16:02.199Z,1.10
2019-02-19T23:18:28.275Z,1.10
2019-02-19T23:20:54.405Z,1.10
2019-02-19T23:23:20.714Z,1.10
2019-02-19T23:25:46.808Z,1.00
2019-02-19T23:28:12.875Z,0.90
2019-02-19T23:30:39.138Z,0.90
2019-02-19T23:33:05.308Z,0.90
2019-02-19T23:35:33.358Z,1.00
2019-02-19T23:37:59.686Z,1.10
2019-02-19T23:40:25.748Z,1.20
2019-02-19T23:42:51.899Z,1.10
2019-02-19T23:45:18.116Z,1.20
2019-02-19T23:47:44.227Z,1.10
2019-02-19T23:50:10.390Z,1.00
2019-02-19T23:52:36.544Z,0.90
2019-02-19T23:55:05.328Z,0.90
2019-02-19T23:57:31.582Z,0.90
2019-02-19T23:59:57.745Z,0.80
